sensor_id;sensor_type;location;lat;lon;timestamp;P1;durP1;ratioP1;P2;durP2;ratioP2
54683;SDS011;40582;53.100;6.686;2022-11-09T00:02:13;9.45;;;3.20;;
54683;SDS011;40582;53.100;6.686;2022-11-09T00:04:38;6.85;;;2.88;;
54683;SDS011;40582;53.100;6.686;2022-11-09T00:07:04;9.00;;;2.97;;
54683;SDS011;40582;53.100;6.686;2022-11-09T00:09:30;12.15;;;3.20;;
54683;SDS011;40582;53.100;6.686;2022-11-09T00:11:55;9.98;;;2.72;;
54683;SDS011;40582;53.100;6.686;2022-11-09T00:14:21;9.65;;;3.45;;
54683;SDS011;40582;53.100;6.686;2022-11-09T00:16:47;7.53;;;2.90;;
54683;SDS011;40582;53.100;6.686;2022-11-09T00:19:12;7.90;;;2.60;;
54683;SDS011;40582;53.100;6.686;2022-11-09T00:21:38;7.22;;;2.75;;
54683;SDS011;40582;53.100;6.686;2022-11-09T00:24:04;7.45;;;2.97;;
54683;SDS011;40582;53.100;6.686;2022-11-09T00:26:30;5.10;;;2.60;;
54683;SDS011;40582;53.100;6.686;2022-11-09T00:28:56;5.63;;;2.30;;
54683;SDS011;40582;53.100;6.686;2022-11-09T00:31:22;10.98;;;2.47;;
54683;SDS011;40582;53.100;6.686;2022-11-09T00:33:49;10.10;;;2.63;;
54683;SDS011;40582;53.100;6.686;2022-11-09T00:36:16;11.57;;;3.17;;
54683;SDS011;40582;53.100;6.686;2022-11-09T00:38:46;6.60;;;2.50;;
54683;SDS011;40582;53.100;6.686;2022-11-09T00:41:13;5.50;;;2.38;;
54683;SDS011;40582;53.100;6.686;2022-11-09T00:43:39;9.98;;;2.70;;
54683;SDS011;40582;53.100;6.686;2022-11-09T00:46:05;7.20;;;2.53;;
54683;SDS011;40582;53.100;6.686;2022-11-09T00:48:31;6.35;;;2.58;;
54683;SDS011;40582;53.100;6.686;2022-11-09T00:50:59;7.43;;;2.83;;
54683;SDS011;40582;53.100;6.686;2022-11-09T00:53:25;6.60;;;2.58;;
54683;SDS011;40582;53.100;6.686;2022-11-09T00:55:54;8.88;;;2.67;;
54683;SDS011;40582;53.100;6.686;2022-11-09T00:58:31;7.97;;;3.13;;
54683;SDS011;40582;53.100;6.686;2022-11-09T01:00:57;12.30;;;3.28;;
54683;SDS011;40582;53.100;6.686;2022-11-09T01:03:28;10.57;;;3.22;;
54683;SDS011;40582;53.100;6.686;2022-11-09T01:05:54;7.35;;;2.65;;
54683;SDS011;40582;53.100;6.686;2022-11-09T01:08:23;9.98;;;3.05;;
54683;SDS011;40582;53.100;6.686;2022-11-09T01:10:49;10.27;;;3.05;;
54683;SDS011;40582;53.100;6.686;2022-11-09T01:13:15;11.38;;;3.17;;
54683;SDS011;40582;53.100;6.686;2022-11-09T01:15:43;11.00;;;3.20;;
54683;SDS011;40582;53.100;6.686;2022-11-09T01:18:13;11.07;;;3.20;;
54683;SDS011;40582;53.100;6.686;2022-11-09T01:20:41;13.82;;;3.10;;
54683;SDS011;40582;53.100;6.686;2022-11-09T01:23:08;9.35;;;2.80;;
54683;SDS011;40582;53.100;6.686;2022-11-09T01:25:35;9.10;;;2.95;;
54683;SDS011;40582;53.100;6.686;2022-11-09T01:28:01;13.52;;;3.53;;
54683;SDS011;40582;53.100;6.686;2022-11-09T01:30:27;11.88;;;3.30;;
54683;SDS011;40582;53.100;6.686;2022-11-09T01:32:54;13.95;;;3.78;;
54683;SDS011;40582;53.100;6.686;2022-11-09T01:35:19;10.63;;;3.05;;
54683;SDS011;40582;53.100;6.686;2022-11-09T01:37:45;12.15;;;3.20;;
54683;SDS011;40582;53.100;6.686;2022-11-09T01:40:11;13.75;;;3.10;;
54683;SDS011;40582;53.100;6.686;2022-11-09T01:42:37;15.48;;;3.22;;
54683;SDS011;40582;53.100;6.686;2022-11-09T01:47:41;17.27;;;2.97;;
54683;SDS011;40582;53.100;6.686;2022-11-09T01:50:08;14.10;;;2.95;;
54683;SDS011;40582;53.100;6.686;2022-11-09T01:52:37;15.27;;;3.33;;
54683;SDS011;40582;53.100;6.686;2022-11-09T01:55:07;7.78;;;3.08;;
54683;SDS011;40582;53.100;6.686;2022-11-09T01:57:39;10.77;;;3.33;;
54683;SDS011;40582;53.100;6.686;2022-11-09T02:00:21;8.05;;;2.90;;
54683;SDS011;40582;53.100;6.686;2022-11-09T02:02:52;12.25;;;3.35;;
54683;SDS011;40582;53.100;6.686;2022-11-09T02:05:23;7.35;;;3.03;;
54683;SDS011;40582;53.100;6.686;2022-11-09T02:07:51;14.82;;;3.17;;
54683;SDS011;40582;53.100;6.686;2022-11-09T02:10:22;14.32;;;3.35;;
54683;SDS011;40582;53.100;6.686;2022-11-09T02:12:56;16.77;;;3.42;;
54683;SDS011;40582;53.100;6.686;2022-11-09T02:15:23;13.93;;;3.22;;
54683;SDS011;40582;53.100;6.686;2022-11-09T02:17:51;11.95;;;2.80;;
54683;SDS011;40582;53.100;6.686;2022-11-09T02:20:18;9.63;;;3.10;;
54683;SDS011;40582;53.100;6.686;2022-11-09T02:22:44;12.45;;;3.53;;
54683;SDS011;40582;53.100;6.686;2022-11-09T02:25:11;15.57;;;3.22;;
54683;SDS011;40582;53.100;6.686;2022-11-09T02:27:38;19.67;;;3.80;;
54683;SDS011;40582;53.100;6.686;2022-11-09T02:30:06;12.23;;;3.03;;
54683;SDS011;40582;53.100;6.686;2022-11-09T02:32:33;15.52;;;3.20;;
54683;SDS011;40582;53.100;6.686;2022-11-09T02:34:59;9.00;;;2.85;;
54683;SDS011;40582;53.100;6.686;2022-11-09T02:40:03;11.93;;;3.30;;
54683;SDS011;40582;53.100;6.686;2022-11-09T02:42:33;17.17;;;3.08;;
54683;SDS011;40582;53.100;6.686;2022-11-09T02:44:59;13.93;;;3.35;;
54683;SDS011;40582;53.100;6.686;2022-11-09T02:47:25;13.05;;;3.22;;
54683;SDS011;40582;53.100;6.686;2022-11-09T02:49:51;14.73;;;3.42;;
54683;SDS011;40582;53.100;6.686;2022-11-09T02:52:17;11.65;;;3.28;;
54683;SDS011;40582;53.100;6.686;2022-11-09T02:54:43;13.57;;;3.17;;
54683;SDS011;40582;53.100;6.686;2022-11-09T02:57:09;12.82;;;3.58;;
54683;SDS011;40582;53.100;6.686;2022-11-09T02:59:34;12.60;;;3.17;;
54683;SDS011;40582;53.100;6.686;2022-11-09T03:02:00;11.68;;;2.97;;
54683;SDS011;40582;53.100;6.686;2022-11-09T03:04:26;10.70;;;3.15;;
54683;SDS011;40582;53.100;6.686;2022-11-09T03:06:51;14.60;;;3.53;;
54683;SDS011;40582;53.100;6.686;2022-11-09T03:09:17;10.73;;;3.30;;
54683;SDS011;40582;53.100;6.686;2022-11-09T03:11:43;12.43;;;2.83;;
54683;SDS011;40582;53.100;6.686;2022-11-09T03:14:09;9.85;;;2.90;;
54683;SDS011;40582;53.100;6.686;2022-11-09T03:16:36;17.92;;;3.85;;
54683;SDS011;40582;53.100;6.686;2022-11-09T03:19:02;11.10;;;3.05;;
54683;SDS011;40582;53.100;6.686;2022-11-09T03:21:28;13.55;;;3.00;;
54683;SDS011;40582;53.100;6.686;2022-11-09T03:23:54;14.13;;;3.03;;
54683;SDS011;40582;53.100;6.686;2022-11-09T03:26:20;17.52;;;3.53;;
54683;SDS011;40582;53.100;6.686;2022-11-09T03:28:46;14.00;;;3.58;;
54683;SDS011;40582;53.100;6.686;2022-11-09T03:31:12;16.67;;;3.22;;
54683;SDS011;40582;53.100;6.686;2022-11-09T03:33:38;11.77;;;3.35;;
54683;SDS011;40582;53.100;6.686;2022-11-09T03:36:04;17.88;;;3.65;;
54683;SDS011;40582;53.100;6.686;2022-11-09T03:38:30;9.77;;;2.63;;
54683;SDS011;40582;53.100;6.686;2022-11-09T03:40:57;10.32;;;2.92;;
54683;SDS011;40582;53.100;6.686;2022-11-09T03:43:24;12.77;;;2.90;;
54683;SDS011;40582;53.100;6.686;2022-11-09T03:45:50;12.27;;;3.10;;
54683;SDS011;40582;53.100;6.686;2022-11-09T03:48:15;12.25;;;3.25;;
54683;SDS011;40582;53.100;6.686;2022-11-09T03:50:41;15.13;;;3.10;;
54683;SDS011;40582;53.100;6.686;2022-11-09T03:53:07;13.98;;;2.90;;
54683;SDS011;40582;53.100;6.686;2022-11-09T03:55:34;17.65;;;3.28;;
54683;SDS011;40582;53.100;6.686;2022-11-09T03:57:59;19.27;;;3.95;;
54683;SDS011;40582;53.100;6.686;2022-11-09T04:00:26;14.80;;;3.05;;
54683;SDS011;40582;53.100;6.686;2022-11-09T04:02:51;14.52;;;3.45;;
54683;SDS011;40582;53.100;6.686;2022-11-09T04:05:17;20.77;;;3.75;;
54683;SDS011;40582;53.100;6.686;2022-11-09T04:07:46;14.88;;;3.33;;
54683;SDS011;40582;53.100;6.686;2022-11-09T04:10:17;20.40;;;5.68;;
54683;SDS011;40582;53.100;6.686;2022-11-09T04:12:43;12.25;;;3.35;;
54683;SDS011;40582;53.100;6.686;2022-11-09T04:15:09;18.40;;;2.97;;
54683;SDS011;40582;53.100;6.686;2022-11-09T04:17:36;13.18;;;2.65;;
54683;SDS011;40582;53.100;6.686;2022-11-09T04:20:01;12.38;;;2.95;;
54683;SDS011;40582;53.100;6.686;2022-11-09T04:22:28;12.18;;;3.10;;
54683;SDS011;40582;53.100;6.686;2022-11-09T04:24:53;12.90;;;2.80;;
54683;SDS011;40582;53.100;6.686;2022-11-09T04:27:19;15.98;;;3.05;;
54683;SDS011;40582;53.100;6.686;2022-11-09T04:29:45;17.20;;;2.65;;
54683;SDS011;40582;53.100;6.686;2022-11-09T04:32:10;14.65;;;3.00;;
54683;SDS011;40582;53.100;6.686;2022-11-09T04:34:36;14.13;;;3.45;;
54683;SDS011;40582;53.100;6.686;2022-11-09T04:37:02;15.27;;;3.22;;
54683;SDS011;40582;53.100;6.686;2022-11-09T04:39:27;11.05;;;2.80;;
54683;SDS011;40582;53.100;6.686;2022-11-09T04:41:53;13.20;;;3.03;;
54683;SDS011;40582;53.100;6.686;2022-11-09T04:44:19;10.52;;;2.97;;
54683;SDS011;40582;53.100;6.686;2022-11-09T04:46:44;14.75;;;3.45;;
54683;SDS011;40582;53.100;6.686;2022-11-09T04:49:10;18.00;;;3.45;;
54683;SDS011;40582;53.100;6.686;2022-11-09T04:51:35;10.25;;;2.88;;
54683;SDS011;40582;53.100;6.686;2022-11-09T04:54:01;10.20;;;3.10;;
54683;SDS011;40582;53.100;6.686;2022-11-09T04:56:27;14.90;;;3.15;;
54683;SDS011;40582;53.100;6.686;2022-11-09T04:58:52;16.77;;;2.63;;
54683;SDS011;40582;53.100;6.686;2022-11-09T05:01:18;13.23;;;3.05;;
54683;SDS011;40582;53.100;6.686;2022-11-09T05:03:44;17.42;;;3.15;;
54683;SDS011;40582;53.100;6.686;2022-11-09T05:06:09;12.60;;;2.97;;
54683;SDS011;40582;53.100;6.686;2022-11-09T05:08:54;14.73;;;2.80;;
54683;SDS011;40582;53.100;6.686;2022-11-09T05:11:20;17.40;;;3.67;;
54683;SDS011;40582;53.100;6.686;2022-11-09T05:13:47;16.13;;;3.58;;
54683;SDS011;40582;53.100;6.686;2022-11-09T05:16:13;12.13;;;2.75;;
54683;SDS011;40582;53.100;6.686;2022-11-09T05:18:41;11.00;;;3.30;;
54683;SDS011;40582;53.100;6.686;2022-11-09T05:21:07;15.13;;;3.58;;
54683;SDS011;40582;53.100;6.686;2022-11-09T05:23:33;15.20;;;3.33;;
54683;SDS011;40582;53.100;6.686;2022-11-09T05:26:17;12.27;;;3.40;;
54683;SDS011;40582;53.100;6.686;2022-11-09T05:28:42;16.90;;;2.78;;
54683;SDS011;40582;53.100;6.686;2022-11-09T05:31:08;10.35;;;2.92;;
54683;SDS011;40582;53.100;6.686;2022-11-09T05:33:34;12.65;;;2.83;;
54683;SDS011;40582;53.100;6.686;2022-11-09T05:36:00;10.38;;;2.83;;
54683;SDS011;40582;53.100;6.686;2022-11-09T05:38:25;12.02;;;2.97;;
54683;SDS011;40582;53.100;6.686;2022-11-09T05:40:51;14.38;;;3.20;;
54683;SDS011;40582;53.100;6.686;2022-11-09T05:43:18;16.63;;;3.90;;
54683;SDS011;40582;53.100;6.686;2022-11-09T05:45:44;11.57;;;2.90;;
54683;SDS011;40582;53.100;6.686;2022-11-09T05:48:10;13.05;;;3.22;;
54683;SDS011;40582;53.100;6.686;2022-11-09T05:50:37;11.77;;;2.95;;
54683;SDS011;40582;53.100;6.686;2022-11-09T05:53:03;14.60;;;4.13;;
54683;SDS011;40582;53.100;6.686;2022-11-09T05:55:29;16.10;;;3.80;;
54683;SDS011;40582;53.100;6.686;2022-11-09T05:57:55;16.55;;;3.50;;
54683;SDS011;40582;53.100;6.686;2022-11-09T06:00:20;16.88;;;3.15;;
54683;SDS011;40582;53.100;6.686;2022-11-09T06:02:46;14.95;;;3.35;;
54683;SDS011;40582;53.100;6.686;2022-11-09T06:05:12;10.18;;;2.92;;
54683;SDS011;40582;53.100;6.686;2022-11-09T06:07:38;15.73;;;3.25;;
54683;SDS011;40582;53.100;6.686;2022-11-09T06:10:03;16.80;;;3.08;;
54683;SDS011;40582;53.100;6.686;2022-11-09T06:12:30;15.93;;;3.53;;
54683;SDS011;40582;53.100;6.686;2022-11-09T06:14:56;21.30;;;3.58;;
54683;SDS011;40582;53.100;6.686;2022-11-09T06:17:21;9.95;;;3.03;;
54683;SDS011;40582;53.100;6.686;2022-11-09T06:19:47;11.13;;;2.95;;
54683;SDS011;40582;53.100;6.686;2022-11-09T06:22:13;9.00;;;2.75;;
54683;SDS011;40582;53.100;6.686;2022-11-09T06:24:38;11.55;;;2.95;;
54683;SDS011;40582;53.100;6.686;2022-11-09T06:27:04;13.57;;;2.97;;
54683;SDS011;40582;53.100;6.686;2022-11-09T06:29:30;12.05;;;3.08;;
54683;SDS011;40582;53.100;6.686;2022-11-09T06:31:56;22.63;;;3.88;;
54683;SDS011;40582;53.100;6.686;2022-11-09T06:34:22;14.50;;;3.50;;
54683;SDS011;40582;53.100;6.686;2022-11-09T06:36:47;14.57;;;3.78;;
54683;SDS011;40582;53.100;6.686;2022-11-09T06:39:13;9.75;;;2.83;;
54683;SDS011;40582;53.100;6.686;2022-11-09T06:41:39;14.40;;;3.40;;
54683;SDS011;40582;53.100;6.686;2022-11-09T06:44:04;15.65;;;3.00;;
54683;SDS011;40582;53.100;6.686;2022-11-09T06:46:31;16.08;;;3.88;;
54683;SDS011;40582;53.100;6.686;2022-11-09T06:48:57;12.98;;;3.47;;
54683;SDS011;40582;53.100;6.686;2022-11-09T06:51:22;16.23;;;3.58;;
54683;SDS011;40582;53.100;6.686;2022-11-09T06:53:48;15.10;;;3.80;;
54683;SDS011;40582;53.100;6.686;2022-11-09T06:56:14;15.80;;;4.05;;
54683;SDS011;40582;53.100;6.686;2022-11-09T06:58:40;17.08;;;3.60;;
54683;SDS011;40582;53.100;6.686;2022-11-09T07:01:09;21.17;;;3.42;;
54683;SDS011;40582;53.100;6.686;2022-11-09T07:03:36;15.45;;;3.20;;
54683;SDS011;40582;53.100;6.686;2022-11-09T07:06:03;13.23;;;3.25;;
54683;SDS011;40582;53.100;6.686;2022-11-09T07:08:30;16.13;;;3.47;;
54683;SDS011;40582;53.100;6.686;2022-11-09T07:11:01;11.95;;;3.22;;
54683;SDS011;40582;53.100;6.686;2022-11-09T07:13:30;18.92;;;3.05;;
54683;SDS011;40582;53.100;6.686;2022-11-09T07:15:56;19.13;;;3.30;;
54683;SDS011;40582;53.100;6.686;2022-11-09T07:18:22;12.77;;;3.05;;
54683;SDS011;40582;53.100;6.686;2022-11-09T07:20:48;9.13;;;2.58;;
54683;SDS011;40582;53.100;6.686;2022-11-09T07:23:14;10.50;;;3.38;;
54683;SDS011;40582;53.100;6.686;2022-11-09T07:25:39;16.67;;;3.50;;
54683;SDS011;40582;53.100;6.686;2022-11-09T07:28:05;15.35;;;3.13;;
54683;SDS011;40582;53.100;6.686;2022-11-09T07:30:33;11.23;;;2.78;;
54683;SDS011;40582;53.100;6.686;2022-11-09T07:33:00;18.75;;;3.95;;
54683;SDS011;40582;53.100;6.686;2022-11-09T07:35:26;20.02;;;3.67;;
54683;SDS011;40582;53.100;6.686;2022-11-09T07:37:52;15.25;;;2.80;;
54683;SDS011;40582;53.100;6.686;2022-11-09T07:40:18;19.50;;;3.45;;
54683;SDS011;40582;53.100;6.686;2022-11-09T07:42:44;13.75;;;3.30;;
54683;SDS011;40582;53.100;6.686;2022-11-09T07:45:10;12.55;;;3.03;;
54683;SDS011;40582;53.100;6.686;2022-11-09T07:47:36;17.52;;;3.00;;
54683;SDS011;40582;53.100;6.686;2022-11-09T07:50:02;18.45;;;3.22;;
54683;SDS011;40582;53.100;6.686;2022-11-09T07:52:28;15.70;;;3.55;;
54683;SDS011;40582;53.100;6.686;2022-11-09T07:54:54;11.15;;;3.00;;
54683;SDS011;40582;53.100;6.686;2022-11-09T07:57:19;17.25;;;3.35;;
54683;SDS011;40582;53.100;6.686;2022-11-09T07:59:45;18.58;;;3.30;;
54683;SDS011;40582;53.100;6.686;2022-11-09T08:02:11;14.20;;;3.33;;
54683;SDS011;40582;53.100;6.686;2022-11-09T08:04:37;16.33;;;3.47;;
54683;SDS011;40582;53.100;6.686;2022-11-09T08:07:02;18.90;;;3.20;;
54683;SDS011;40582;53.100;6.686;2022-11-09T08:09:28;15.95;;;3.58;;
54683;SDS011;40582;53.100;6.686;2022-11-09T08:11:54;17.35;;;3.47;;
54683;SDS011;40582;53.100;6.686;2022-11-09T08:14:19;15.68;;;3.72;;
54683;SDS011;40582;53.100;6.686;2022-11-09T08:16:45;13.63;;;3.20;;
54683;SDS011;40582;53.100;6.686;2022-11-09T08:19:11;15.13;;;3.50;;
54683;SDS011;40582;53.100;6.686;2022-11-09T08:21:37;13.98;;;3.03;;
54683;SDS011;40582;53.100;6.686;2022-11-09T08:24:03;21.15;;;3.65;;
54683;SDS011;40582;53.100;6.686;2022-11-09T08:26:29;13.70;;;3.05;;
54683;SDS011;40582;53.100;6.686;2022-11-09T08:28:56;16.45;;;3.38;;
54683;SDS011;40582;53.100;6.686;2022-11-09T08:31:21;15.15;;;3.13;;
54683;SDS011;40582;53.100;6.686;2022-11-09T08:33:47;16.33;;;3.78;;
54683;SDS011;40582;53.100;6.686;2022-11-09T08:36:14;18.27;;;3.75;;
54683;SDS011;40582;53.100;6.686;2022-11-09T08:38:42;18.65;;;3.97;;
54683;SDS011;40582;53.100;6.686;2022-11-09T08:41:08;14.50;;;3.47;;
54683;SDS011;40582;53.100;6.686;2022-11-09T08:43:35;20.30;;;3.90;;
54683;SDS011;40582;53.100;6.686;2022-11-09T08:46:01;14.30;;;3.75;;
54683;SDS011;40582;53.100;6.686;2022-11-09T08:48:26;14.40;;;3.42;;
54683;SDS011;40582;53.100;6.686;2022-11-09T08:50:53;22.25;;;4.50;;
54683;SDS011;40582;53.100;6.686;2022-11-09T08:53:21;19.13;;;3.75;;
54683;SDS011;40582;53.100;6.686;2022-11-09T08:55:47;13.82;;;3.60;;
54683;SDS011;40582;53.100;6.686;2022-11-09T08:58:13;15.75;;;3.63;;
54683;SDS011;40582;53.100;6.686;2022-11-09T09:00:39;19.25;;;3.65;;
54683;SDS011;40582;53.100;6.686;2022-11-09T09:03:04;14.57;;;3.53;;
54683;SDS011;40582;53.100;6.686;2022-11-09T09:05:31;17.90;;;3.75;;
54683;SDS011;40582;53.100;6.686;2022-11-09T09:07:58;17.70;;;3.45;;
54683;SDS011;40582;53.100;6.686;2022-11-09T09:10:25;15.85;;;3.75;;
54683;SDS011;40582;53.100;6.686;2022-11-09T09:12:50;20.02;;;3.65;;
54683;SDS011;40582;53.100;6.686;2022-11-09T09:15:16;15.43;;;3.70;;
54683;SDS011;40582;53.100;6.686;2022-11-09T09:17:42;17.58;;;3.88;;
54683;SDS011;40582;53.100;6.686;2022-11-09T09:20:07;18.73;;;4.10;;
54683;SDS011;40582;53.100;6.686;2022-11-09T09:22:33;16.17;;;3.42;;
54683;SDS011;40582;53.100;6.686;2022-11-09T09:24:59;17.33;;;3.67;;
54683;SDS011;40582;53.100;6.686;2022-11-09T09:27:25;20.67;;;3.58;;
54683;SDS011;40582;53.100;6.686;2022-11-09T09:29:51;17.17;;;3.45;;
54683;SDS011;40582;53.100;6.686;2022-11-09T09:32:16;22.70;;;4.25;;
54683;SDS011;40582;53.100;6.686;2022-11-09T09:34:42;25.40;;;4.10;;
54683;SDS011;40582;53.100;6.686;2022-11-09T09:37:08;19.45;;;3.38;;
54683;SDS011;40582;53.100;6.686;2022-11-09T09:39:33;19.83;;;4.20;;
54683;SDS011;40582;53.100;6.686;2022-11-09T09:42:06;18.23;;;4.10;;
54683;SDS011;40582;53.100;6.686;2022-11-09T09:44:39;18.15;;;3.55;;
54683;SDS011;40582;53.100;6.686;2022-11-09T09:47:11;22.58;;;4.30;;
54683;SDS011;40582;53.100;6.686;2022-11-09T09:49:42;15.25;;;3.30;;
54683;SDS011;40582;53.100;6.686;2022-11-09T09:52:35;21.17;;;4.30;;
54683;SDS011;40582;53.100;6.686;2022-11-09T09:55:07;17.83;;;3.80;;
54683;SDS011;40582;53.100;6.686;2022-11-09T09:57:40;21.95;;;5.03;;
54683;SDS011;40582;53.100;6.686;2022-11-09T10:00:17;16.80;;;3.72;;
54683;SDS011;40582;53.100;6.686;2022-11-09T10:02:49;10.55;;;3.55;;
54683;SDS011;40582;53.100;6.686;2022-11-09T10:05:16;13.88;;;4.10;;
54683;SDS011;40582;53.100;6.686;2022-11-09T10:08:00;22.60;;;4.75;;
54683;SDS011;40582;53.100;6.686;2022-11-09T10:10:36;16.33;;;3.78;;
54683;SDS011;40582;53.100;6.686;2022-11-09T10:13:32;15.00;;;3.25;;
54683;SDS011;40582;53.100;6.686;2022-11-09T10:16:05;14.68;;;3.45;;
54683;SDS011;40582;53.100;6.686;2022-11-09T10:21:45;22.45;;;4.40;;
54683;SDS011;40582;53.100;6.686;2022-11-09T10:26:57;22.92;;;4.40;;
54683;SDS011;40582;53.100;6.686;2022-11-09T10:29:32;17.58;;;3.70;;
54683;SDS011;40582;53.100;6.686;2022-11-09T10:32:08;18.73;;;4.25;;
54683;SDS011;40582;53.100;6.686;2022-11-09T10:34:52;17.88;;;4.30;;
54683;SDS011;40582;53.100;6.686;2022-11-09T10:37:21;18.33;;;3.80;;
54683;SDS011;40582;53.100;6.686;2022-11-09T10:40:04;20.50;;;4.47;;
54683;SDS011;40582;53.100;6.686;2022-11-09T10:42:34;17.60;;;3.70;;
54683;SDS011;40582;53.100;6.686;2022-11-09T10:45:01;13.38;;;3.63;;
54683;SDS011;40582;53.100;6.686;2022-11-09T10:47:50;24.38;;;3.90;;
54683;SDS011;40582;53.100;6.686;2022-11-09T10:50:25;14.00;;;3.80;;
54683;SDS011;40582;53.100;6.686;2022-11-09T10:53:06;15.30;;;3.83;;
54683;SDS011;40582;53.100;6.686;2022-11-09T10:58:35;16.13;;;3.83;;
54683;SDS011;40582;53.100;6.686;2022-11-09T11:03:38;15.75;;;3.95;;
54683;SDS011;40582;53.100;6.686;2022-11-09T11:06:06;12.82;;;3.35;;
54683;SDS011;40582;53.100;6.686;2022-11-09T11:11:21;16.42;;;4.40;;
54683;SDS011;40582;53.100;6.686;2022-11-09T11:14:09;20.10;;;4.22;;
54683;SDS011;40582;53.100;6.686;2022-11-09T11:16:38;18.80;;;4.03;;
54683;SDS011;40582;53.100;6.686;2022-11-09T11:19:04;11.85;;;3.58;;
54683;SDS011;40582;53.100;6.686;2022-11-09T11:24:58;15.60;;;4.07;;
54683;SDS011;40582;53.100;6.686;2022-11-09T11:32:35;13.20;;;3.40;;
54683;SDS011;40582;53.100;6.686;2022-11-09T11:35:04;15.27;;;3.38;;
54683;SDS011;40582;53.100;6.686;2022-11-09T11:37:44;16.38;;;3.90;;
54683;SDS011;40582;53.100;6.686;2022-11-09T11:40:32;17.90;;;3.90;;
54683;SDS011;40582;53.100;6.686;2022-11-09T11:43:14;21.48;;;3.97;;
54683;SDS011;40582;53.100;6.686;2022-11-09T11:46:07;15.57;;;3.67;;
54683;SDS011;40582;53.100;6.686;2022-11-09T11:51:17;12.77;;;3.58;;
54683;SDS011;40582;53.100;6.686;2022-11-09T11:56:35;19.85;;;3.50;;
54683;SDS011;40582;53.100;6.686;2022-11-09T12:01:43;17.88;;;3.58;;
54683;SDS011;40582;53.100;6.686;2022-11-09T12:10:06;20.98;;;3.97;;
54683;SDS011;40582;53.100;6.686;2022-11-09T12:21:17;21.58;;;4.53;;
54683;SDS011;40582;53.100;6.686;2022-11-09T12:29:25;16.95;;;3.42;;
54683;SDS011;40582;53.100;6.686;2022-11-09T12:34:36;20.40;;;3.92;;
54683;SDS011;40582;53.100;6.686;2022-11-09T12:37:13;16.50;;;3.55;;
54683;SDS011;40582;53.100;6.686;2022-11-09T12:39:46;15.23;;;3.65;;
54683;SDS011;40582;53.100;6.686;2022-11-09T12:47:30;19.55;;;4.00;;
54683;SDS011;40582;53.100;6.686;2022-11-09T12:50:02;16.48;;;3.40;;
54683;SDS011;40582;53.100;6.686;2022-11-09T12:52:29;17.13;;;3.90;;
54683;SDS011;40582;53.100;6.686;2022-11-09T12:54:55;11.52;;;3.17;;
54683;SDS011;40582;53.100;6.686;2022-11-09T12:57:26;14.25;;;3.50;;
54683;SDS011;40582;53.100;6.686;2022-11-09T12:59:57;17.80;;;3.08;;
54683;SDS011;40582;53.100;6.686;2022-11-09T13:02:31;15.05;;;3.20;;
54683;SDS011;40582;53.100;6.686;2022-11-09T13:05:01;12.38;;;3.20;;
54683;SDS011;40582;53.100;6.686;2022-11-09T13:10:35;9.20;;;2.75;;
54683;SDS011;40582;53.100;6.686;2022-11-09T13:15:39;14.05;;;3.08;;
54683;SDS011;40582;53.100;6.686;2022-11-09T13:23:45;13.75;;;2.97;;
54683;SDS011;40582;53.100;6.686;2022-11-09T13:34:55;13.50;;;2.65;;
54683;SDS011;40582;53.100;6.686;2022-11-09T13:43:04;11.45;;;2.50;;
54683;SDS011;40582;53.100;6.686;2022-11-09T13:45:43;11.10;;;2.40;;
54683;SDS011;40582;53.100;6.686;2022-11-09T13:50:55;9.63;;;2.45;;
54683;SDS011;40582;53.100;6.686;2022-11-09T13:55:54;13.07;;;2.40;;
54683;SDS011;40582;53.100;6.686;2022-11-09T13:58:28;9.80;;;2.60;;
54683;SDS011;40582;53.100;6.686;2022-11-09T14:01:01;10.85;;;2.90;;
54683;SDS011;40582;53.100;6.686;2022-11-09T14:03:28;8.18;;;2.00;;
54683;SDS011;40582;53.100;6.686;2022-11-09T14:05:58;8.15;;;2.05;;
54683;SDS011;40582;53.100;6.686;2022-11-09T14:08:30;8.75;;;1.98;;
54683;SDS011;40582;53.100;6.686;2022-11-09T14:13:52;7.75;;;2.55;;
54683;SDS011;40582;53.100;6.686;2022-11-09T14:16:50;7.20;;;1.70;;
54683;SDS011;40582;53.100;6.686;2022-11-09T14:19:23;6.22;;;1.52;;
54683;SDS011;40582;53.100;6.686;2022-11-09T14:21:51;7.93;;;2.03;;
54683;SDS011;40582;53.100;6.686;2022-11-09T14:24:19;11.15;;;2.90;;
54683;SDS011;40582;53.100;6.686;2022-11-09T14:29:33;6.93;;;1.77;;
54683;SDS011;40582;53.100;6.686;2022-11-09T14:32:02;7.07;;;1.98;;
54683;SDS011;40582;53.100;6.686;2022-11-09T14:34:47;7.50;;;1.50;;
54683;SDS011;40582;53.100;6.686;2022-11-09T14:37:13;7.00;;;1.80;;
54683;SDS011;40582;53.100;6.686;2022-11-09T14:39:40;5.97;;;1.35;;
54683;SDS011;40582;53.100;6.686;2022-11-09T14:42:05;13.02;;;2.17;;
54683;SDS011;40582;53.100;6.686;2022-11-09T14:44:32;11.32;;;2.17;;
54683;SDS011;40582;53.100;6.686;2022-11-09T14:47:12;8.18;;;2.10;;
54683;SDS011;40582;53.100;6.686;2022-11-09T14:49:43;8.00;;;1.73;;
54683;SDS011;40582;53.100;6.686;2022-11-09T14:52:16;6.63;;;2.00;;
54683;SDS011;40582;53.100;6.686;2022-11-09T14:57:13;5.80;;;1.90;;
54683;SDS011;40582;53.100;6.686;2022-11-09T14:59:40;8.30;;;2.10;;
54683;SDS011;40582;53.100;6.686;2022-11-09T15:02:09;7.57;;;2.20;;
54683;SDS011;40582;53.100;6.686;2022-11-09T15:07:20;8.57;;;2.08;;
54683;SDS011;40582;53.100;6.686;2022-11-09T15:09:59;10.20;;;2.55;;
54683;SDS011;40582;53.100;6.686;2022-11-09T15:12:27;10.77;;;2.85;;
54683;SDS011;40582;53.100;6.686;2022-11-09T15:14:57;6.40;;;2.50;;
54683;SDS011;40582;53.100;6.686;2022-11-09T15:17:31;7.82;;;2.38;;
54683;SDS011;40582;53.100;6.686;2022-11-09T15:30:44;6.78;;;2.45;;
54683;SDS011;40582;53.100;6.686;2022-11-09T15:35:57;10.93;;;3.35;;
54683;SDS011;40582;53.100;6.686;2022-11-09T15:38:53;10.15;;;3.75;;
54683;SDS011;40582;53.100;6.686;2022-11-09T15:41:20;11.77;;;3.45;;
54683;SDS011;40582;53.100;6.686;2022-11-09T15:43:47;11.90;;;2.90;;
54683;SDS011;40582;53.100;6.686;2022-11-09T15:46:14;9.82;;;3.08;;
54683;SDS011;40582;53.100;6.686;2022-11-09T15:48:42;9.68;;;2.85;;
54683;SDS011;40582;53.100;6.686;2022-11-09T15:51:09;11.00;;;3.55;;
54683;SDS011;40582;53.100;6.686;2022-11-09T15:53:36;9.75;;;3.17;;
54683;SDS011;40582;53.100;6.686;2022-11-09T15:56:01;6.43;;;2.50;;
54683;SDS011;40582;53.100;6.686;2022-11-09T15:58:27;9.43;;;3.00;;
54683;SDS011;40582;53.100;6.686;2022-11-09T16:00:53;10.82;;;3.00;;
54683;SDS011;40582;53.100;6.686;2022-11-09T16:03:18;7.40;;;2.70;;
54683;SDS011;40582;53.100;6.686;2022-11-09T16:05:45;8.05;;;2.65;;
54683;SDS011;40582;53.100;6.686;2022-11-09T16:08:11;13.65;;;2.95;;
54683;SDS011;40582;53.100;6.686;2022-11-09T16:10:38;12.07;;;3.38;;
54683;SDS011;40582;53.100;6.686;2022-11-09T16:13:05;11.02;;;3.05;;
54683;SDS011;40582;53.100;6.686;2022-11-09T16:15:32;10.02;;;3.00;;
54683;SDS011;40582;53.100;6.686;2022-11-09T16:17:59;12.75;;;3.10;;
54683;SDS011;40582;53.100;6.686;2022-11-09T16:20:25;9.00;;;2.60;;
54683;SDS011;40582;53.100;6.686;2022-11-09T16:22:51;10.15;;;2.85;;
54683;SDS011;40582;53.100;6.686;2022-11-09T16:25:16;14.20;;;3.95;;
54683;SDS011;40582;53.100;6.686;2022-11-09T16:27:42;13.73;;;3.35;;
54683;SDS011;40582;53.100;6.686;2022-11-09T16:30:09;12.90;;;2.97;;
54683;SDS011;40582;53.100;6.686;2022-11-09T16:32:35;10.90;;;3.42;;
54683;SDS011;40582;53.100;6.686;2022-11-09T16:35:02;16.33;;;3.45;;
54683;SDS011;40582;53.100;6.686;2022-11-09T16:37:30;10.75;;;2.95;;
54683;SDS011;40582;53.100;6.686;2022-11-09T16:39:58;12.80;;;3.75;;
54683;SDS011;40582;53.100;6.686;2022-11-09T16:42:24;15.73;;;3.70;;